createdAt,value
2023-04-08T00:00:02.172Z,100120.28
2023-04-08T00:00:45.157Z,100122.22
2023-04-08T00:01:27.197Z,100122.56
2023-04-08T00:02:08.953Z,100123.84
2023-04-08T00:02:50.724Z,100117.06
2023-04-08T00:03:32.898Z,100122.81
2023-04-08T00:04:14.875Z,100121.31
2023-04-08T00:04:56.738Z,100125.91
2023-04-08T00:05:38.397Z,100132.31
2023-04-08T00:06:19.948Z,100123.03
2023-04-08T00:07:01.545Z,100128.84
2023-04-08T00:07:44.018Z,100127.72
2023-04-08T00:08:25.765Z,100124.63
2023-04-08T00:09:07.433Z,100120.84
2023-04-08T00:09:49.274Z,100096.38
2023-04-08T00:10:30.992Z,100124.56
2023-04-08T00:11:12.569Z,100117.50
2023-04-08T00:11:54.336Z,100107.72
2023-04-08T00:12:36.172Z,100124.47
2023-04-08T00:13:17.882Z,100095.22
2023-04-08T00:14:00.209Z,100115.56
2023-04-08T00:14:41.775Z,100124.47
2023-04-08T00:15:23.499Z,100119.66
2023-04-08T00:16:05.239Z,100133.69
2023-04-08T00:16:46.885Z,100124.94
2023-04-08T00:17:28.624Z,100122.47
2023-04-08T00:18:10.407Z,100118.63
2023-04-08T00:18:52.313Z,100118.31
2023-04-08T00:19:36.129Z,100124.13
2023-04-08T00:20:17.964Z,100127.44
2023-04-08T00:21:00.333Z,100130.56
2023-04-08T00:21:41.905Z,100116.88
2023-04-08T00:22:23.470Z,100129.28
2023-04-08T00:23:05.115Z,100130.78
2023-04-08T00:23:47.488Z,100109.63
2023-04-08T00:24:29.081Z,100138.22
2023-04-08T00:25:10.807Z,100106.19
2023-04-08T00:25:52.419Z,100123.72
2023-04-08T00:26:33.985Z,100130.50
2023-04-08T00:27:15.821Z,100107.19
2023-04-08T00:27:57.393Z,100128.72
2023-04-08T00:28:39.060Z,100126.75
2023-04-08T00:29:20.744Z,100130.06
2023-04-08T00:30:03.499Z,100108.06
2023-04-08T00:30:45.714Z,100121.97
2023-04-08T00:31:27.436Z,100126.78
2023-04-08T00:32:09.085Z,100106.09
2023-04-08T00:32:50.736Z,100125.44
2023-04-08T00:33:32.448Z,100132.88
2023-04-08T00:34:14.080Z,100130.25
2023-04-08T00:34:55.760Z,100112.88
2023-04-08T00:35:37.368Z,100126.78
2023-04-08T00:36:19.181Z,100130.25
2023-04-08T00:37:01.231Z,100130.25
2023-04-08T00:37:42.815Z,100124.81
2023-04-08T00:38:24.415Z,100116.88
2023-04-08T00:39:06.882Z,100126.47
2023-04-08T00:39:48.667Z,100126.50
2023-04-08T00:40:30.316Z,100129.50
2023-04-08T00:41:12.491Z,100129.00
2023-04-08T00:41:54.151Z,100123.25
2023-04-08T00:42:35.884Z,100135.00
2023-04-08T00:43:20.719Z,100132.84
2023-04-08T00:44:02.716Z,100122.47
2023-04-08T00:44:44.390Z,100131.56
2023-04-08T00:45:26.380Z,100128.78
2023-04-08T00:46:09.374Z,100099.00
2023-04-08T00:46:51.006Z,100133.91
2023-04-08T00:47:32.760Z,100133.56
2023-04-08T00:48:14.425Z,100132.41
2023-04-08T00:48:56.161Z,100128.94
2023-04-08T00:49:37.741Z,100133.56
2023-04-08T00:50:20.242Z,100135.72
2023-04-08T00:51:02.139Z,100132.69
2023-04-08T00:51:43.706Z,100125.44
2023-04-08T00:52:25.358Z,100121.75
2023-04-08T00:53:07.294Z,100130.19
2023-04-08T00:53:48.885Z,100137.44
2023-04-08T00:54:31.598Z,100132.16
2023-04-08T00:55:13.254Z,100130.66
2023-04-08T00:55:54.887Z,100099.78
2023-04-08T00:56:37.518Z,100140.44
2023-04-08T00:57:19.096Z,100138.28
2023-04-08T00:58:00.917Z,100138.97
2023-04-08T00:58:43.172Z,100134.50
2023-04-08T00:59:24.749Z,100136.16
2023-04-08T01:00:06.996Z,100136.00
2023-04-08T01:00:59.123Z,100122.78
2023-04-08T01:01:49.876Z,100117.16
2023-04-08T01:02:40.465Z,100139.13
2023-04-08T01:04:01.830Z,100132.84
2023-04-08T01:05:01.674Z,100136.09
2023-04-08T01:06:05.555Z,100137.44
2023-04-08T01:06:55.866Z,100129.84
2023-04-08T01:07:41.424Z,100128.22
2023-04-08T01:08:26.528Z,100139.94
2023-04-08T01:09:10.088Z,100132.69
2023-04-08T01:09:54.818Z,100136.69
2023-04-08T01:10:38.909Z,100139.03
2023-04-08T01:11:21.449Z,100121.31
2023-04-08T01:12:08.107Z,100140.31
2023-04-08T01:13:04.988Z,100136.56
2023-04-08T01:13:49.501Z,100124.16
2023-04-08T01:14:34.868Z,100133.91
2023-04-08T01:15:17.558Z,100123.19
2023-04-08T01:15:59.623Z,100119.03
2023-04-08T01:16:43.511Z,100128.16
2023-04-08T01:17:25.496Z,100130.31
2023-04-08T01:18:09.591Z,100108.16
2023-04-08T01:18:53.284Z,100140.41
2023-04-08T01:19:39.647Z,100124.19
2023-04-08T01:20:24.762Z,100135.47
2023-04-08T01:21:07.437Z,100130.47
2023-04-08T01:21:49.640Z,100111.94
2023-04-08T01:22:46.501Z,100123.00
2023-04-08T01:23:37.942Z,100133.75
2023-04-08T01:24:33.696Z,100131.72
2023-04-08T01:25:18.681Z,100126.59
2023-04-08T01:26:00.942Z,100116.84
2023-04-08T01:26:43.627Z,100114.88
2023-04-08T01:27:26.715Z,100138.50
2023-04-08T01:28:12.322Z,100132.38
2023-04-08T01:28:57.567Z,100137.66
2023-04-08T01:29:40.331Z,100127.25
2023-04-08T01:30:24.589Z,100120.66
2023-04-08T01:31:07.597Z,100126.97
2023-04-08T01:31:50.125Z,100125.47
2023-04-08T01:32:34.125Z,100109.09
2023-04-08T01:33:17.560Z,100131.25
2023-04-08T01:34:01.287Z,100123.34
2023-04-08T01:34:44.248Z,100125.31
2023-04-08T01:35:26.310Z,100127.94
2023-04-08T01:36:08.941Z,100113.72
2023-04-08T01:36:53.858Z,100122.66
2023-04-08T01:37:36.993Z,100116.53
2023-04-08T01:38:22.598Z,100127.25
2023-04-08T01:39:05.828Z,100118.84
2023-04-08T01:39:49.774Z,100126.97
2023-04-08T01:40:34.143Z,100114.38
2023-04-08T01:41:19.695Z,100105.16
2023-04-08T01:42:02.540Z,100109.78
2023-04-08T01:42:45.744Z,100117.22
2023-04-08T01:43:28.532Z,100123.50
2023-04-08T01:44:11.423Z,100102.84
2023-04-08T01:44:57.306Z,100123.66
2023-04-08T01:45:38.937Z,100120.53
2023-04-08T01:46:21.813Z,100111.06
2023-04-08T01:47:03.812Z,100117.22
2023-04-08T01:47:48.106Z,100118.06
2023-04-08T01:48:30.849Z,100111.28
2023-04-08T01:49:12.701Z,100117.38
2023-04-08T01:49:55.164Z,100124.00
2023-04-08T01:50:37.873Z,100127.63
2023-04-08T01:51:21.127Z,100126.97
2023-04-08T01:52:05.132Z,100125.31
2023-04-08T01:52:49.448Z,100122.66
2023-04-08T01:53:32.180Z,100104.13
2023-04-08T01:54:14.809Z,100126.06
2023-04-08T01:54:56.951Z,100127.56
2023-04-08T01:55:40.985Z,100128.03
2023-04-08T01:56:23.642Z,100123.25
2023-04-08T01:57:08.804Z,100124.53
2023-04-08T01:57:52.637Z,100118.56
2023-04-08T01:58:42.997Z,100122.56
2023-04-08T01:59:31.413Z,100125.88
2023-04-08T02:00:14.400Z,100133.31
2023-04-08T02:01:02.473Z,100114.66
2023-04-08T02:01:45.417Z,100126.72
2023-04-08T02:02:28.246Z,100126.56
2023-04-08T02:03:12.960Z,100129.88
2023-04-08T02:03:57.565Z,100126.28
2023-04-08T02:04:39.552Z,100127.25
2023-04-08T02:05:21.454Z,100135.66
2023-04-08T02:06:03.067Z,100122.13
2023-04-08T02:06:44.953Z,100116.03
2023-04-08T02:07:26.657Z,100124.94
2023-04-08T02:08:08.828Z,100131.56
2023-04-08T02:08:50.676Z,100133.06
2023-04-08T02:09:32.465Z,100130.59
2023-04-08T02:10:14.113Z,100126.13
2023-04-08T02:10:56.001Z,100125.94
2023-04-08T02:11:37.579Z,100137.84
2023-04-08T02:12:19.704Z,100130.22
2023-04-08T02:13:03.349Z,100129.53
2023-04-08T02:13:45.572Z,100119.28
2023-04-08T02:14:28.384Z,100127.25
2023-04-08T02:15:12.659Z,100128.53
2023-04-08T02:16:01.284Z,100133.81
2023-04-08T02:16:52.982Z,100139.63
2023-04-08T02:17:43.277Z,100134.34
2023-04-08T02:18:28.290Z,100134.81
2023-04-08T02:19:23.708Z,100137.16
2023-04-08T02:20:17.726Z,100111.88
2023-04-08T02:21:10.147Z,100132.25
2023-04-08T02:22:01.251Z,100133.91
2023-04-08T02:22:57.828Z,100134.56
2023-04-08T02:23:41.483Z,100132.56
2023-04-08T02:24:23.863Z,100100.66
2023-04-08T02:25:11.055Z,100128.47
2023-04-08T02:25:55.442Z,100142.50
2023-04-08T02:26:43.749Z,100134.44
2023-04-08T02:27:27.473Z,100124.50
2023-04-08T02:28:11.693Z,100144.47
2023-04-08T02:28:55.065Z,100139.91
2023-04-08T02:29:41.168Z,100139.59
2023-04-08T02:30:25.811Z,100123.06
2023-04-08T02:31:13.475Z,100135.66
2023-04-08T02:32:02.050Z,100126.38
2023-04-08T02:32:45.713Z,100133.31
2023-04-08T02:33:28.489Z,100135.50
2023-04-08T02:34:11.741Z,100141.56
2023-04-08T02:34:54.522Z,100141.25
2023-04-08T02:35:37.979Z,100121.69
2023-04-08T02:36:22.896Z,100122.66
2023-04-08T02:37:05.645Z,100132.25
2023-04-08T02:37:50.370Z,100129.22
2023-04-08T02:38:32.353Z,100137.47
2023-04-08T02:39:14.084Z,100139.78
2023-04-08T02:39:55.940Z,100127.84
2023-04-08T02:40:37.822Z,100131.16
2023-04-08T02:41:19.428Z,100136.75
2023-04-08T02:42:01.234Z,100128.81
2023-04-08T02:42:42.839Z,100134.72
2023-04-08T02:43:31.651Z,100136.06
2023-04-08T02:44:13.337Z,100136.75
2023-04-08T02:44:57.324Z,100135.75
2023-04-08T02:45:41.739Z,100131.31
2023-04-08T02:46:24.189Z,100105.31
2023-04-08T02:47:05.950Z,100133.63
2023-04-08T02:47:50.040Z,100133.63
2023-04-08T02:48:31.813Z,100137.25
2023-04-08T02:49:13.395Z,100134.47
2023-04-08T02:49:55.285Z,100129.50
2023-04-08T02:50:37.230Z,100135.44
2023-04-08T02:51:18.901Z,100130.47
2023-04-08T02:52:00.536Z,100132.97
2023-04-08T02:52:43.727Z,100132.13
2023-04-08T02:53:25.599Z,100135.75
2023-04-08T02:54:07.306Z,100130.94
2023-04-08T02:54:48.988Z,100136.38
2023-04-08T02:55:30.915Z,100120.81
2023-04-08T02:56:12.671Z,100131.91
2023-04-08T02:56:54.239Z,100122.44
2023-04-08T02:57:37.270Z,100136.97
2023-04-08T02:58:19.169Z,100123.53
2023-04-08T02:59:00.793Z,100124.03
2023-04-08T02:59:42.457Z,100137.06
2023-04-08T03:00:24.065Z,100129.50
2023-04-08T03:01:05.949Z,100135.22
2023-04-08T03:01:47.535Z,100136.88
2023-04-08T03:02:29.293Z,100108.91
2023-04-08T03:03:11.080Z,100144.28
2023-04-08T03:03:52.923Z,100135.53
2023-04-08T03:04:34.789Z,100134.72
2023-04-08T03:05:16.904Z,100118.47
2023-04-08T03:05:59.070Z,100125.63
2023-04-08T03:06:40.781Z,100129.59
2023-04-08T03:07:22.549Z,100114.69
2023-04-08T03:08:04.181Z,100126.13
2023-04-08T03:08:45.790Z,100135.06
2023-04-08T03:09:27.358Z,100128.16
2023-04-08T03:10:09.434Z,100130.63
2023-04-08T03:10:51.043Z,100143.34
2023-04-08T03:11:33.067Z,100136.25
2023-04-08T03:12:14.671Z,100082.19
2023-04-08T03:12:56.298Z,100133.59
2023-04-08T03:13:38.147Z,100133.59
2023-04-08T03:14:20.697Z,100137.41
2023-04-08T03:15:03.383Z,100128.28
2023-04-08T03:15:45.291Z,100142.47
2023-04-08T03:16:27.040Z,100129.25
2023-04-08T03:17:08.654Z,100144.72
2023-04-08T03:17:50.531Z,100096.28
2023-04-08T03:18:32.124Z,100138.81
2023-04-08T03:19:13.744Z,100138.81
2023-04-08T03:19:55.336Z,100138.13
2023-04-08T03:20:36.942Z,100139.63
2023-04-08T03:21:18.716Z,100118.94
2023-04-08T03:22:00.480Z,100141.22
2023-04-08T03:22:42.091Z,100139.06
2023-04-08T03:23:23.680Z,100135.22
2023-04-08T03:24:05.530Z,100122.75
2023-04-08T03:24:47.168Z,100136.00
2023-04-08T03:25:29.234Z,100140.59
2023-04-08T03:26:11.383Z,100133.81
2023-04-08T03:26:52.970Z,100133.44
2023-04-08T03:27:34.622Z,100143.22
2023-04-08T03:28:16.213Z,100136.44
2023-04-08T03:28:58.106Z,100150.47
2023-04-08T03:29:39.884Z,100119.38
2023-04-08T03:30:21.629Z,100138.19
2023-04-08T03:31:04.737Z,100137.88
2023-04-08T03:31:46.346Z,100136.22
2023-04-08T03:32:28.186Z,100136.53
2023-04-08T03:33:09.808Z,100121.28
2023-04-08T03:33:51.541Z,100126.75
2023-04-08T03:34:36.917Z,100141.13
2023-04-08T03:35:18.530Z,100112.69
2023-04-08T03:36:00.309Z,100133.38
2023-04-08T03:36:41.919Z,100139.53
2023-04-08T03:37:23.584Z,100141.19
2023-04-08T03:38:05.560Z,100141.19
2023-04-08T03:38:47.267Z,100131.78
2023-04-08T03:39:28.920Z,100137.88
2023-04-08T03:40:11.296Z,100138.06
2023-04-08T03:40:52.854Z,100138.34
2023-04-08T03:41:34.432Z,100146.56
2023-04-08T03:42:16.125Z,100140.75
2023-04-08T03:42:57.766Z,100139.41
2023-04-08T03:43:39.411Z,100144.31
2023-04-08T03:44:21.037Z,100116.81
2023-04-08T03:45:02.676Z,100142.59
2023-04-08T03:45:44.252Z,100120.66
2023-04-08T03:46:25.925Z,100134.59
2023-04-08T03:47:07.793Z,100141.84
2023-04-08T03:47:49.482Z,100143.63
2023-04-08T03:48:32.051Z,100140.19
2023-04-08T03:49:13.669Z,100141.16
2023-04-08T03:49:55.313Z,100142.13
2023-04-08T03:50:36.912Z,100147.69
2023-04-08T03:51:18.513Z,100141.06
2023-04-08T03:52:00.207Z,100132.31
2023-04-08T03:52:41.817Z,100120.41
2023-04-08T03:53:23.510Z,100122.47
2023-04-08T03:54:05.520Z,100143.31
2023-04-08T03:54:47.154Z,100149.13
2023-04-08T03:55:29.103Z,100154.41
2023-04-08T03:56:10.747Z,100144.69
2023-04-08T03:56:52.283Z,100139.47
2023-04-08T03:57:33.859Z,100144.16
2023-04-08T03:58:15.405Z,100145.28
2023-04-08T03:58:57.049Z,100155.13
2023-04-08T03:59:40.939Z,100118.41
2023-04-08T04:00:22.614Z,100143.69
2023-04-08T04:01:04.353Z,100133.50
2023-04-08T04:01:46.409Z,100144.56
2023-04-08T04:02:28.393Z,100149.31
2023-04-08T04:03:12.957Z,100149.72
2023-04-08T04:03:54.916Z,100121.72
2023-04-08T04:04:37.099Z,100148.53
2023-04-08T04:05:18.943Z,100142.72
2023-04-08T04:06:00.673Z,100151.59
2023-04-08T04:06:42.494Z,100142.19
2023-04-08T04:07:24.048Z,100134.47
2023-04-08T04:08:06.152Z,100156.31
2023-04-08T04:08:48.065Z,100151.38
2023-04-08T04:09:29.889Z,100148.72
2023-04-08T04:10:11.855Z,100127.34
2023-04-08T04:10:53.483Z,100154.13
2023-04-08T04:11:35.874Z,100150.81
2023-04-08T04:12:17.467Z,100146.81
2023-04-08T04:12:59.123Z,100121.53
2023-04-08T04:13:40.730Z,100152.22
2023-04-08T04:14:22.276Z,100157.47
2023-04-08T04:15:04.626Z,100148.78
2023-04-08T04:15:46.319Z,100165.69
2023-04-08T04:16:27.973Z,100165.81
2023-04-08T04:17:09.533Z,100164.03
2023-04-08T04:17:51.149Z,100169.28
2023-04-08T04:18:32.791Z,100143.28
2023-04-08T04:19:14.361Z,100162.38
2023-04-08T04:19:56.307Z,100146.41
2023-04-08T04:20:44.064Z,100170.25
2023-04-08T04:21:25.648Z,100166.94
2023-04-08T04:22:07.306Z,100166.94
2023-04-08T04:22:48.934Z,100143.41
2023-04-08T04:23:30.564Z,100162.50
2023-04-08T04:24:13.419Z,100164.16
2023-04-08T04:24:55.056Z,100165.00
2023-04-08T04:25:36.803Z,100167.75
2023-04-08T04:26:18.748Z,100164.84
2023-04-08T04:27:00.361Z,100166.22
2023-04-08T04:27:41.967Z,100165.53
2023-04-08T04:28:23.566Z,100150.50
2023-04-08T04:29:05.213Z,100167.22
2023-04-08T04:29:46.753Z,100170.00
2023-04-08T04:30:28.575Z,100170.97
2023-04-08T04:31:26.276Z,100169.84
2023-04-08T04:32:08.665Z,100172.47
2023-04-08T04:32:50.315Z,100139.88
2023-04-08T04:33:31.966Z,100174.97
2023-04-08T04:34:13.692Z,100169.72
2023-04-08T04:34:55.305Z,100177.59
2023-04-08T04:35:36.996Z,100174.97
2023-04-08T04:36:19.546Z,100157.44
2023-04-08T04:37:01.307Z,100175.66
2023-04-08T04:37:43.090Z,100174.69
2023-04-08T04:38:24.718Z,100172.72
2023-04-08T04:39:06.300Z,100178.81
2023-04-08T04:39:47.973Z,100172.91
2023-04-08T04:40:29.538Z,100170.09
2023-04-08T04:41:11.676Z,100150.38
2023-04-08T04:41:53.229Z,100148.31
2023-04-08T04:42:34.932Z,100158.78
2023-04-08T04:43:16.573Z,100163.63
2023-04-08T04:43:58.198Z,100161.13
2023-04-08T04:44:39.859Z,100175.34
2023-04-08T04:45:21.441Z,100166.50
2023-04-08T04:46:03.939Z,100168.00
2023-04-08T04:46:45.603Z,100161.91
2023-04-08T04:47:27.223Z,100167.03
2023-04-08T04:48:08.921Z,100166.22
2023-04-08T04:48:51.500Z,100172.31
2023-04-08T04:49:33.323Z,100174.94
2023-04-08T04:50:14.875Z,100168.84
2023-04-08T04:50:57.577Z,100170.78
2023-04-08T04:51:39.172Z,100175.91
2023-04-08T04:52:20.833Z,100178.66
2023-04-08T04:53:02.507Z,100177.00
2023-04-08T04:53:44.335Z,100171.06
2023-04-08T04:54:25.984Z,100172.06
2023-04-08T04:55:08.021Z,100177.31
2023-04-08T04:55:51.241Z,100174.00
2023-04-08T04:56:32.978Z,100163.22
2023-04-08T04:57:14.534Z,100178.44
2023-04-08T04:57:56.207Z,100167.66
2023-04-08T04:58:37.764Z,100165.84
2023-04-08T04:59:19.325Z,100142.81
2023-04-08T05:00:02.282Z,100167.66
2023-04-08T05:00:46.611Z,100177.47
2023-04-08T05:01:29.109Z,100181.75
2023-04-08T05:02:10.920Z,100175.81
2023-04-08T05:02:52.829Z,100178.81
2023-04-08T05:03:34.587Z,100182.97
2023-04-08T05:04:16.444Z,100184.63
2023-04-08T05:04:58.175Z,100180.19
2023-04-08T05:05:40.181Z,100167.47
2023-04-08T05:06:23.832Z,100182.44
2023-04-08T05:07:05.434Z,100169.25
2023-04-08T05:07:47.042Z,100184.38
2023-04-08T05:08:28.658Z,100183.66
2023-04-08T05:09:10.271Z,100190.84
2023-04-08T05:09:51.875Z,100177.47
2023-04-08T05:10:33.422Z,100186.19
2023-04-08T05:11:16.850Z,100164.91
2023-04-08T05:11:58.563Z,100184.66
2023-04-08T05:12:40.346Z,100192.41
2023-04-08T05:13:22.227Z,100187.84
2023-04-08T05:14:03.854Z,100183.09
2023-04-08T05:14:46.224Z,100190.84
2023-04-08T05:15:27.782Z,100186.44
2023-04-08T05:16:09.499Z,100184.50
2023-04-08T05:16:51.072Z,100195.59
2023-04-08T05:17:32.661Z,100191.03
2023-04-08T05:18:14.348Z,100193.47
2023-04-08T05:18:55.937Z,100190.56
2023-04-08T05:19:37.507Z,100203.44
2023-04-08T05:20:19.252Z,100197.91
2023-04-08T05:21:00.843Z,100191.81
2023-04-08T05:21:42.400Z,100193.47
2023-04-08T05:22:23.974Z,100094.28
2023-04-08T05:23:05.682Z,100200.63
2023-04-08T05:23:47.347Z,100213.63
2023-04-08T05:24:28.991Z,100199.78
2023-04-08T05:25:11.509Z,100203.66
2023-04-08T05:25:53.224Z,100192.31
2023-04-08T05:26:34.859Z,100208.31
2023-04-08T05:27:16.637Z,100190.31
2023-04-08T05:27:58.264Z,100195.31
2023-04-08T05:28:39.838Z,100201.66
2023-04-08T05:29:21.887Z,100204.16
2023-04-08T05:30:04.194Z,100206.59
2023-04-08T05:30:52.781Z,100174.38
2023-04-08T05:31:34.416Z,100189.75
2023-04-08T05:32:16.974Z,100188.66
2023-04-08T05:33:00.537Z,100191.41
2023-04-08T05:33:42.447Z,100204.53
2023-04-08T05:34:24.192Z,100160.59
2023-04-08T05:35:06.262Z,100208.53
2023-04-08T05:35:47.829Z,100204.09
2023-04-08T05:36:29.452Z,100202.16
2023-04-08T05:37:11.283Z,100192.19
2023-04-08T05:37:52.846Z,100202.28
2023-04-08T05:38:34.631Z,100197.72
2023-04-08T05:39:16.229Z,100211.94
2023-04-08T05:39:57.806Z,100203.50
2023-04-08T05:40:39.430Z,100196.06
2023-04-08T05:41:21.444Z,100214.97
2023-04-08T05:42:03.205Z,100210.53
2023-04-08T05:42:45.237Z,100212.00
2023-04-08T05:43:27.032Z,100212.69
2023-04-08T05:44:08.629Z,100213.25
2023-04-08T05:44:50.262Z,100206.88
2023-04-08T05:45:31.837Z,100216.56
2023-04-08T05:46:13.408Z,100218.38
2023-04-08T05:46:55.806Z,100215.59
2023-04-08T05:47:37.481Z,100213.78
2023-04-08T05:48:19.300Z,100213.59
2023-04-08T05:49:00.926Z,100214.16
2023-04-08T05:49:42.566Z,100205.88
2023-04-08T05:50:24.179Z,100202.84
2023-04-08T05:51:05.881Z,100220.25
2023-04-08T05:51:47.468Z,100211.66
2023-04-08T05:52:29.026Z,100226.63
2023-04-08T05:53:10.818Z,100216.41
2023-04-08T05:53:52.405Z,100214.50
2023-04-08T05:54:33.990Z,100217.13
2023-04-08T05:55:15.678Z,100194.06
2023-04-08T05:55:57.302Z,100198.81
2023-04-08T05:56:38.902Z,100225.94
2023-04-08T05:57:20.505Z,100206.88
2023-04-08T05:58:02.049Z,100223.72
2023-04-08T05:58:43.653Z,100223.22
2023-04-08T05:59:25.236Z,100219.34
2023-04-08T06:00:08.772Z,100216.31
2023-04-08T06:00:51.589Z,100220.88
2023-04-08T06:01:33.265Z,100224.31
2023-04-08T06:02:14.931Z,100227.78
2023-04-08T06:02:56.957Z,100224.19
2023-04-08T06:03:39.422Z,100225.00
2023-04-08T06:04:21.341Z,100225.84
2023-04-08T06:05:03.912Z,100217.41
2023-04-08T06:05:45.690Z,100224.31
2023-04-08T06:06:27.328Z,100220.72
2023-04-08T06:07:08.961Z,100225.66
2023-04-08T06:07:50.557Z,100214.78
2023-04-08T06:08:32.224Z,100237.16
2023-04-08T06:09:13.801Z,100233.78
2023-04-08T06:09:55.753Z,100217.75
2023-04-08T06:10:37.392Z,100218.78
2023-04-08T06:11:19.062Z,100240.06
2023-04-08T06:12:00.645Z,100230.34
2023-04-08T06:12:42.286Z,100234.56
2023-04-08T06:13:25.544Z,100233.94
2023-04-08T06:14:07.200Z,100241.44
2023-04-08T06:14:53.309Z,100233.53
2023-04-08T06:15:34.905Z,100231.41
2023-04-08T06:16:20.332Z,100238.84
2023-04-08T06:17:02.546Z,100243.97
2023-04-08T06:17:44.328Z,100242.19
2023-04-08T06:18:26.032Z,100241.72
2023-04-08T06:19:07.615Z,100244.72
2023-04-08T06:19:49.173Z,100244.28
2023-04-08T06:20:30.914Z,100244.28
2023-04-08T06:21:12.657Z,100245.13
2023-04-08T06:21:58.783Z,100229.38
2023-04-08T06:22:40.392Z,100222.44
2023-04-08T06:23:22.396Z,100244.81
2023-04-08T06:24:04.027Z,100248.13
2023-04-08T06:24:47.570Z,100242.03
2023-04-08T06:25:29.132Z,100248.97
2023-04-08T06:26:11.082Z,100243.16
2023-04-08T06:26:53.673Z,100243.16
2023-04-08T06:27:35.634Z,100242.88
2023-04-08T06:28:17.253Z,100251.13
2023-04-08T06:28:58.851Z,100243.00
2023-04-08T06:29:42.740Z,100246.69
2023-04-08T06:30:24.634Z,100245.19
2023-04-08T06:31:06.297Z,100240.28
2023-04-08T06:31:48.022Z,100246.09
2023-04-08T06:32:29.722Z,100242.97
2023-04-08T06:33:11.407Z,100252.09
2023-04-08T06:33:53.007Z,100238.81
2023-04-08T06:34:35.607Z,100198.22
2023-04-08T06:35:17.357Z,100227.28
2023-04-08T06:36:06.245Z,100252.03
2023-04-08T06:36:48.397Z,100242.97
2023-04-08T06:37:30.150Z,100244.34
2023-04-08T06:38:11.866Z,100253.41
2023-04-08T06:38:53.397Z,100250.78
2023-04-08T06:39:35.050Z,100233.41
2023-04-08T06:40:16.657Z,100248.19
2023-04-08T06:41:05.552Z,100242.59
2023-04-08T06:41:47.160Z,100244.34
2023-04-08T06:42:44.463Z,100247.31
2023-04-08T06:43:44.501Z,100241.41
2023-04-08T06:44:26.063Z,100246.91
2023-04-08T06:45:08.062Z,100229.19
2023-04-08T06:45:50.072Z,100236.66
2023-04-08T06:46:31.668Z,100234.19
2023-04-08T06:47:13.310Z,100234.53
2023-04-08T06:47:56.574Z,100234.69
2023-04-08T06:48:39.033Z,100209.38
2023-04-08T06:49:20.723Z,100222.44
2023-04-08T06:50:02.586Z,100232.03
2023-04-08T06:50:44.118Z,100222.97
2023-04-08T06:51:25.789Z,100231.59
2023-04-08T06:52:08.233Z,100235.06
2023-04-08T06:52:49.951Z,100206.47
2023-04-08T06:53:33.303Z,100236.38
2023-04-08T06:54:14.939Z,100235.56
2023-04-08T06:54:57.069Z,100177.84
2023-04-08T06:55:38.637Z,100231.25
2023-04-08T06:56:22.510Z,100243.00
2023-04-08T06:57:04.296Z,100242.81
2023-04-08T06:57:45.907Z,100225.50
2023-04-08T06:58:27.563Z,100234.88
2023-04-08T06:59:09.317Z,100241.19
2023-04-08T06:59:51.048Z,100216.06
2023-04-08T07:00:32.766Z,100243.81
2023-04-08T07:01:16.351Z,100245.47
2023-04-08T07:01:58.245Z,100237.22
2023-04-08T07:02:39.999Z,100243.16
2023-04-08T07:03:22.105Z,100237.88
2023-04-08T07:04:04.177Z,100234.88
2023-04-08T07:04:46.869Z,100221.34
2023-04-08T07:05:28.569Z,100226.94
2023-04-08T07:06:10.368Z,100233.56
2023-04-08T07:06:51.930Z,100246.63
2023-04-08T07:07:33.513Z,100248.13
2023-04-08T07:08:15.166Z,100238.53
2023-04-08T07:08:56.713Z,100242.97
2023-04-08T07:09:38.373Z,100246.13
2023-04-08T07:10:20.286Z,100247.44
2023-04-08T07:11:02.483Z,100233.88
2023-04-08T07:11:44.467Z,100234.38
2023-04-08T07:12:26.120Z,100246.59
2023-04-08T07:13:07.783Z,100237.31
2023-04-08T07:13:49.437Z,100231.53
2023-04-08T07:14:31.170Z,100243.59
2023-04-08T07:15:12.764Z,100237.47
2023-04-08T07:15:54.354Z,100250.88
2023-04-08T07:16:36.010Z,100253.00
2023-04-08T07:17:17.648Z,100199.44
2023-04-08T07:17:59.791Z,100252.53
2023-04-08T07:18:42.542Z,100255.66
2023-04-08T07:19:24.572Z,100247.03
2023-04-08T07:20:07.194Z,100256.56
2023-04-08T07:20:54.936Z,100245.25
2023-04-08T07:21:36.637Z,100258.63
2023-04-08T07:22:18.489Z,100252.66
2023-04-08T07:23:00.251Z,100250.81
2023-04-08T07:23:41.821Z,100252.28
2023-04-08T07:24:23.869Z,100263.03
2023-04-08T07:25:06.124Z,100258.56
2023-04-08T07:25:48.232Z,100259.00
2023-04-08T07:26:29.892Z,100262.81
2023-04-08T07:27:11.501Z,100264.94
2023-04-08T07:27:53.113Z,100265.06
2023-04-08T07:28:34.681Z,100250.78
2023-04-08T07:29:16.627Z,100257.84
2023-04-08T07:29:58.285Z,100250.28
2023-04-08T07:30:39.976Z,100259.94
2023-04-08T07:31:21.960Z,100262.41
2023-04-08T07:32:03.715Z,100266.03
2023-04-08T07:32:45.561Z,100274.63
2023-04-08T07:33:27.234Z,100264.19
2023-04-08T07:34:08.946Z,100265.31
2023-04-08T07:34:50.962Z,100253.84
2023-04-08T07:35:33.832Z,100271.84
2023-04-08T07:36:15.642Z,100264.53
2023-04-08T07:36:57.385Z,100271.41
2023-04-08T07:37:38.968Z,100254.72
2023-04-08T07:38:20.574Z,100273.19
2023-04-08T07:39:02.579Z,100271.00
2023-04-08T07:39:44.153Z,100276.97
2023-04-08T07:40:26.144Z,100258.25
2023-04-08T07:41:07.944Z,100273.78
2023-04-08T07:41:49.612Z,100284.06
2023-04-08T07:42:31.270Z,100283.88
2023-04-08T07:43:12.888Z,100271.38
2023-04-08T07:43:54.480Z,100263.63
2023-04-08T07:44:36.273Z,100279.75
2023-04-08T07:45:17.965Z,100268.44
2023-04-08T07:46:03.175Z,100270.16
2023-04-08T07:46:46.226Z,100279.81
2023-04-08T07:47:28.141Z,100271.19
2023-04-08T07:48:09.886Z,100275.50
2023-04-08T07:48:52.134Z,100271.69
2023-04-08T07:49:33.839Z,100267.03
2023-04-08T07:50:15.384Z,100275.47
2023-04-08T07:51:08.914Z,100266.06
2023-04-08T07:51:53.050Z,100278.72
2023-04-08T07:52:34.847Z,100274.19
2023-04-08T07:53:16.481Z,100232.56
2023-04-08T07:53:58.147Z,100261.38
2023-04-08T07:54:39.737Z,100267.47
2023-04-08T07:55:21.422Z,100270.84
2023-04-08T07:56:05.980Z,100264.19
2023-04-08T07:56:47.625Z,100270.81
2023-04-08T07:57:29.275Z,100266.88
2023-04-08T07:58:11.230Z,100278.50
2023-04-08T07:58:54.195Z,100281.72
2023-04-08T07:59:36.141Z,100277.97
2023-04-08T08:00:21.620Z,100268.97
2023-04-08T08:01:03.628Z,100287.19
2023-04-08T08:01:46.821Z,100273.47
2023-04-08T08:02:28.654Z,100285.44
2023-04-08T08:03:10.487Z,100277.38
2023-04-08T08:03:53.986Z,100281.69
2023-04-08T08:04:36.260Z,100265.00
2023-04-08T08:05:18.135Z,100285.81
2023-04-08T08:05:59.799Z,100280.03
2023-04-08T08:06:41.442Z,100287.84
2023-04-08T08:07:23.047Z,100285.53